Los datos mostrados corresponden al resumen diario obtenido de los registros semihorarios entre las 0:00 y las 24:00 h, en horario solar.
| Estación | Fecha | V Km/h | DV | Vx Km/h | T ºC | Tn ºC | Tx ºC | H frío | HR % | Rad MJ/m2 día | H sol | P mm | ETo mm |
|---|---|---|---|---|---|---|---|---|---|---|---|---|---|
| Almoradí | 05/09/2026 | 2.79 | S | 13.72 | 27.26 | 22.55 | 35.9 | 0 | 73.4 | 21.64 | 10.55 | 0.21 | 4.65 |
| Elx | 05/09/2026 | 3.78 | N | 18.77 | 27.58 | 20.85 | 36.08 | 0 | 62.76 | 22.66 | 10.97 | 0 | 5.04 |
| Callosa d'En Sarrià | 05/09/2026 | 1.23 | NO | 10.16 | 26.48 | 20.19 | 33.43 | 0 | 61.14 | 22.45 | 10.69 | 0 | 4.12 |
| Callosa d'En Sarrià (malla) | 05/09/2026 | 0.87 | E | 8.36 | 26.98 | 20.93 | 35.18 | 0 | 47.89 | 18.23 | 10.01 | 0 | 3.45 |
| Catral | 05/09/2026 | 1.75 | SO | 14.64 | 27.03 | 20.74 | 35.85 | 0 | 65.39 | 18.13 | 9.59 | 0 | 3.78 |
| Altea | 05/09/2026 | 4.22 | N | 16.76 | 27.09 | 22.17 | 33.97 | 0 | 63.21 | 22.45 | 11.2 | 0 | 4.97 |
| Planes | 05/09/2026 | 2.69 | E | 26.6 | 26.98 | 17.43 | 38.72 | 0 | 47.07 | 24.17 | 11.1 | 0 | 4.97 |
| Villena | 05/09/2026 | 4.04 | S | 24.98 | 25.49 | 16.07 | 35.97 | 0 | 57.45 | 23.09 | 10.97 | 0 | 5.13 |
| Camp de Mirra | 05/09/2026 | 4.92 | NE | 22.01 | 26.21 | 18.29 | 35.65 | 0 | 46 | 22.95 | 11 | 0 | 5.52 |
| Agost | 05/09/2026 | 3.55 | NE | 15.77 | 26.47 | 19.41 | 34.91 | 0 | 53.06 | 21.89 | 11.09 | 0 | 4.79 |
| Orihuela - La Murada | 05/09/2026 | 3.5 | N | 20.01 | 27.2 | 20.24 | 36.69 | 0 | 61.83 | 21.8 | 10.69 | 0 | 4.9 |
| Villajoyosa | 05/09/2026 | 2.62 | SE | 12.24 | 27.15 | 21.49 | 34.02 | 0 | 55.46 | 22.54 | 11.05 | 0 | 4.56 |
| Ondara | 05/09/2026 | 3.12 | S | 15.95 | 27.1 | 18.79 | 37.24 | 0 | 67.12 | 22.78 | 10.98 | 0 | 4.89 |
| Dénia | 05/09/2026 | 2.16 | E | 15.91 | 25.96 | 17.23 | 36.96 | 0 | 64.21 | 21.67 | 11 | 0 | 4.36 |
| Pinoso | 05/09/2026 | 4.57 | O | 18.03 | 26.69 | 19.91 | 35.44 | 0 | 44.23 | 23.66 | 10.79 | 0 | 5.47 |
| Monforte del Cid | 05/09/2026 | 3.79 | E | 17.11 | 26.21 | 19.08 | 35.54 | 0 | 57.34 | 22.8 | 11.06 | 0 | 5.01 |
| Crevillent | 05/09/2026 | 2.7 | N | 13.62 | 28.39 | 22.21 | 35.63 | 0 | 56.91 | 22.21 | 10.84 | 0 | 4.68 |
| Vall d'Uixó | 05/09/2026 | 3.14 | O | 9.81 | 27.2 | 20.9 | 35.28 | 0 | 65.69 | 20.61 | 10.69 | 0 | 4.46 |
| Vila-real EEA | 05/09/2026 | 5.54 | N | 15.73 | 28.22 | 22.59 | 34.74 | 0 | 64.66 | 19.96 | 10.43 | 0 | 5.1 |
| Onda | 05/09/2026 | 4.26 | N | 15.42 | 27.26 | 20.88 | 34.1 | 0 | 64.11 | 22.11 | 10.82 | 0 | 4.92 |
| Vila-Real | 05/09/2026 | 3.64 | N | 15.1 | 26.89 | 22.19 | 32.22 | 0 | 71.5 | 21.11 | 10.76 | 0 | 4.45 |
| San Rafael del Río | 05/09/2026 | 3.5 | SO | 14.68 | 25.85 | 19.42 | 33.28 | 0 | 73 | 19.77 | 11.01 | 0 | 4.16 |
| Castelló de la Plana | 04/09/2026 | 1.75 | S | 10.37 | 26.41 | 20.7 | 33.42 | 0 | 74.8 | 21.57 | 10.84 | 0 | 4.17 |
| Ribera de Cabanes | 05/09/2026 | 3.25 | SO | 13.86 | 26.01 | 21.11 | 31.02 | 0 | 35.72 | 20.82 | 10.92 | 0 | 4.32 |
| Nules | 05/09/2026 | 3.77 | E | 13.51 | 26.27 | 19.73 | 33.1 | 0 | 73.4 | 20.01 | 10.72 | 0 | 4.27 |
| Segorbe | 05/09/2026 | 1.86 | SE | 11.71 | 26.73 | 16.77 | 38.71 | 0 | 56.26 | 21.35 | 10.6 | 0 | 4.24 |
| Pedralba | 05/09/2026 | 2.35 | SE | 16.16 | 27.58 | 19.91 | 38.05 | 0 | 51.57 | 21.04 | 10.34 | 0 | 4.45 |
| Benavites | 05/09/2026 | 1.59 | SE | 10.48 | 24.07 | 17.09 | 32.01 | 0 | 85.8 | 20.42 | 10.64 | 0.4 | 3.75 |
| Moncada | 05/09/2026 | 5 | N | 19.17 | 26.13 | 19.43 | 36.01 | 0 | 71.61 | 22.37 | 10.67 | 0.1 | 5.23 |
| Carcaixent | 05/09/2026 | 3.62 | N | 20.24 | 28.03 | 19.36 | 38.76 | 0 | 60.92 | 22.06 | 10.78 | 0 | 5.18 |
| Carlet | 05/09/2026 | 3.65 | N | 16.56 | 27.41 | 20 | 36.11 | 0 | 61.88 | 21.62 | 10.53 | 0 | 4.84 |
| Llutxent | 05/09/2026 | 6.47 | N | 29.59 | 27.4 | 21.29 | 34.87 | 0 | 59.62 | 21.68 | 11.08 | 0 | 5.46 |
| Requena | 05/09/2026 | 5.82 | N | 22.17 | 28.07 | 20.01 | 37.19 | 0 | 36.04 | 22.14 | 11.19 | 0 | 5.97 |
| Algimia de Alfara | 05/09/2026 | 2.73 | E | 17.57 | 26.77 | 18.25 | 35.77 | 0 | 61.62 | 21.36 | 10.78 | 0 | 4.44 |
| Valencia - UPV | 05/09/2026 | 3.95 | E | 18.24 | 26.56 | 22.44 | 32.15 | 0 | 76.18 | 16.18 | 10.7 | 0 | 3.75 |
| Algemesí | 05/09/2026 | 3.25 | S | 14.96 | 26.45 | 20.6 | 34.12 | 0 | 76.3 | 20.59 | 10.69 | 0 | 4.38 |
| Picassent | 05/09/2026 | 2.42 | E | 13.65 | 26.07 | 19.61 | 34.84 | 0 | 72.1 | 21.54 | 10.61 | 0 | 4.34 |
| Montesa | 05/09/2026 | 2.49 | S | 14.5 | 27.76 | 20.16 | 38.2 | 0 | 60.71 | 20.95 | 10.49 | 0 | 4.56 |
| Xàtiva | 05/09/2026 | 2.43 | NO | 13.37 | 27.79 | 19.62 | 39.29 | 0 | 66.22 | 21.91 | 10.96 | 0 | 4.71 |
| Llíria | 05/09/2026 | 3.08 | NE | 17.07 | 27.13 | 18.69 | 37.58 | 0 | 56.12 | 20.86 | 10.64 | 0 | 4.67 |
| Sagunt | 05/09/2026 | 3.37 | NO | 12.07 | 27.8 | 23.24 | 34.87 | 0 | 60.45 | 20.38 | 10.72 | 0 | 4.58 |
| Campo Arcís | 05/09/2026 | 4.52 | E | 23.57 | 26.74 | 17.43 | 37.84 | 0 | 40.7 | 22.1 | 11.14 | 0 | 5.48 |
| Villalonga | 05/09/2026 | 2.84 | N | 14.57 | 27.63 | 21.09 | 35.14 | 0 | 68.42 | 21.27 | 11.04 | 0 | 4.49 |
| Gandía | 05/09/2026 | 1.95 | NO | 15.45 | 27 | 19.95 | 34.95 | 0 | 65.8 | 21.13 | 11.01 | 0 | 4.19 |
| Bolbaite | 05/09/2026 | 3.7 | N | 17.11 | 27.07 | 19.4 | 36.96 | 0 | 58.61 | 20.39 | 10.47 | 0 | 4.77 |
| Bétera | 05/09/2026 | 4.42 | O | 18.63 | 26.08 | 19.28 | 35.4 | 0 | 68.21 | 21.78 | 10.72 | 0 | 4.99 |
| Chulilla | 05/09/2026 | 4 | S | 21.06 | 27.59 | 18.34 | 37.41 | 0 | 45.92 | 21.09 | 10.77 | 0 | 5.07 |
| Godelleta | 05/09/2026 | 2.7 | SO | 14.68 | 26.69 | 19.07 | 37.13 | 0 | 60.98 | 21.34 | 10.34 | 0 | 4.57 |
| Bèlgida | 05/09/2026 | 4.01 | E | 21.42 | 26.81 | 19.06 | 36.69 | 0 | 68.37 | 21.56 | 11.04 | 0 | 4.89 |
| Polinyà de Xúquer | 05/09/2026 | 3.28 | E | 17.29 | 26.22 | 20.67 | 33.22 | 0 | 77.2 | 22.16 | 10.83 | 0.2 | 4.52 |
| Benifaió | 05/09/2026 | 2.13 | NE | 14.25 | 26.92 | 20.24 | 36.2 | 0 | 74.4 | 22.4 | 10.7 | 0 | 4.5 |
| Cheste | 05/09/2026 | 1.31 | SE | 12.98 | 26.25 | 17.25 | 38.37 | 0 | 56.35 | 22 | 10.46 | 0 | 4.07 |
| Tavernes de la Valldigna | 05/09/2026 | 3.42 | SE | 17.82 | 25.77 | 20.12 | 32.24 | 0 | 83.2 | 21.06 | 11.03 | 0 | 4.21 |
| Castelló | 05/09/2026 | 2.01 | SE | 16.55 | 27.47 | 19.87 | 38.47 | 0 | 71.3 | 15.08 | 8.02 | 0 | 3.6 |
© Copyright 2011, Instituto Valenciano de Investigaciones Agrarias.
Los datos meteorológicos ofrecidos es esta página son informativos, por lo que carecen de carácter oficial. Los datos son publicados automáticamente y, por lo tanto, pueden no estar sujetos a una completa validación.
|
Cargando ...espere por favor... |